Flight Track Log - Related Links

Times and Time Zones

All times are in EDT time to prevent confusion due to time zone crossing. See the SWA311 flight status page for this flight to view local times or setup timezone preferences in your user account.

Time Position Orientation Groundspeed Altitude Reporting Facility
EDT Latitude Longitude Course Direction KTS MPH feet Rate Location/Type
Sun 07:58:35 PM 39.1000 -76.6000 142° Southeast 206 237 5,100  Level Potomac TRACON
Sun 07:59:29 PM 39.0500 -76.5667 153° Southeast 249 287 8,100 3,250 Climbing Potomac TRACON
Sun 08:00:35 PM 38.9833 -76.5000 142° Southeast 296 341 11,600 1,744 Climbing Potomac TRACON
Sun 08:02:52 PM 38.7908 -76.5425 190° South 317 365 14,000 879 Climbing Washington Center
Sun 08:03:00 PM 38.6864 -76.7064 184° South  Level FlightAware Approximate
Sun 08:03:53 PM 38.7131 -76.6028 211° Southwest 317 365 14,500  Level Washington Center
Sun 08:04:53 PM 38.6333 -76.6681 213° Southwest 336 387 17,900 3,250 Climbing Washington Center
Sun 08:05:53 PM 38.5475 -76.7225 206° Southwest 348 400 21,000 2,050 Climbing Washington Center
Sun 08:06:53 PM 38.4433 -76.7131 176° South 339 390 22,000 504 Climbing Washington Center
Sun 08:07:52 PM 38.3392 -76.7008 175° South 359 413 22,000  Level Washington Center
Sun 08:08:53 PM 38.2267 -76.6806 172° South 369 425 22,000  Level Washington Center
Sun 08:09:52 PM 38.1242 -76.7031 190° South 375 432 22,000  Level Washington Center
Sun 08:10:52 PM 38.0300 -76.7542 203° Southwest 365 420 22,000  Level Washington Center
Sun 08:11:53 PM 37.9378 -76.8028 203° Southwest 370 426 22,000  Level Washington Center
Sun 08:12:53 PM 37.8433 -76.8539 203° Southwest 370 426 22,000  Level Washington Center
Sun 08:13:53 PM 37.7572 -76.8972 202° Southwest 375 432 22,000  Level Washington Center
Sun 08:14:53 PM 37.6650 -76.9456 203° Southwest 375 432 22,000  Level Washington Center
Sun 08:15:53 PM 37.5686 -76.9936 202° Southwest 375 432 22,000  Level Washington Center
Sun 08:16:52 PM 37.4636 -77.0492 203° Southwest 375 432 22,000  Level Washington Center
Sun 08:17:53 PM 37.3756 -77.0944 202° Southwest 359 413 22,000  Level Washington Center
Sun 08:18:53 PM 37.2850 -77.1475 205° Southwest 359 413 22,000  Level Washington Center
Sun 08:19:53 PM 37.2008 -77.2058 209° Southwest 353 406 22,000  Level Washington Center
Sun 08:20:53 PM 37.1144 -77.2667 209° Southwest 353 406 22,000  Level Washington Center
Sun 08:21:53 PM 37.0303 -77.3272 210° Southwest 353 406 22,000  Level Washington Center
Sun 08:22:53 PM 36.9481 -77.3878 210° Southwest 353 406 22,000  Level Washington Center
Sun 08:23:52 PM 36.8636 -77.4533 212° Southwest 358 412 22,000  Level Washington Center
Sun 08:24:52 PM 36.7792 -77.5161 211° Southwest 358 412 22,000  Level Washington Center
Sun 08:25:53 PM 36.6947 -77.5761 210° Southwest 358 412 22,000  Level Washington Center
Sun 08:26:52 PM 36.6100 -77.6414 212° Southwest 358 412 22,000  Level Washington Center
Sun 08:27:53 PM 36.5256 -77.7036 211° Southwest 363 418 22,000  Level Washington Center
Sun 08:28:52 PM 36.4572 -77.7897 225° Southwest 358 412 22,000  Level Washington Center
Sun 08:29:53 PM 36.3972 -77.8706 227° Southwest 358 412 22,000 -950 Level Washington Center
Sun 08:30:52 PM 36.3308 -77.9589 227° Southwest 358 412 20,100 -2,000 Descending Washington Center
Sun 08:31:53 PM 36.2644 -78.0469 227° Southwest 358 412 18,000 -2,483 Descending Washington Center
Sun 08:32:48 PM 36.1917 -78.1375 225° Southwest 350 403 15,300 -2,483 Descending Washington Center
Sun 08:33:49 PM 36.1394 -78.2308 235° Southwest 334 384 13,200 -2,213 Descending Washington Center
Sun 08:34:50 PM 36.0936 -78.3269 239° Southwest 325 374 10,800 -1,659 Descending Washington Center
Sun 08:35:52 PM 36.0519 -78.4156 240° Southwest 323 372 9,800 -1,140 Descending Washington Center
Sun 08:36:51 PM 36.0081 -78.5011 238° Southwest 270 311 8,500 -908 Descending Washington Center
Sun 08:37:51 PM 35.9564 -78.5686 227° Southwest 245 282 8,000 -843 Descending Washington Center
Sun 08:38:52 PM 35.9069 -78.6231 222° Southwest 227 261 6,800 -992 Descending Washington Center
Sun 08:39:52 PM 35.8642 -78.6625 217° Southwest 239 275 6,000 -1,100 Descending Washington Center
Sun 08:40:52 PM 35.8106 -78.7219 222° Southwest 234 269 4,600 -1,209 Descending Washington Center
Sun 08:42:06 PM 35.7544 -78.7861 223° Southwest 235 270 3,300 -800 Descending Washington Center
Sun 08:43:07 PM 35.7633 -78.8531 279° West 221 254 2,800 -496 Descending Washington Center
Sun 08:44:07 PM 35.8064 -78.8728 340° North 151 174 2,300 -744 Descending Washington Center
Sun 08:45:08 PM 35.8303 -78.8381 50° Northeast 107 123 1,300 -793 Descending Washington Center
Sun 08:46:08 PM 35.8561 -78.8108 40° Northeast 131 151 700 -600 Descending Washington Center
Sun 08:48:00 PM 35.8667 -78.7833 25° Northeast  Level FlightAware Approximate

Login

Don't have an account? Register now (free) for customized features, flight alerts, and more!